Time;durP1;ratioP1;P1;durP2;ratioP2;P2;SDS_P1;SDS_P2;PMS_P1;PMS_P2;Temp;Humidity;BMP_temperature;BMP_pressure;BME280_temperature;BME280_humidity;BME280_pressure;Samples;Min_cycle;Max_cycle;Signal;HPM_P1;HPM_P2
2022/09/22 00:01:54;;;;;;;8.32;5.88;;;;;;;8.72;88.95;98801.53;4173720;28;20652;-83
2022/09/22 00:03:59;;;;;;;6.70;5.80;;;;;;;8.69;88.37;98797.34;4180592;28;20229;-82
2022/09/22 00:06:06;;;;;;;6.22;5.60;;;;;;;8.66;88.15;98796.63;4154800;28;20728;-82
2022/09/22 00:08:09;;;;;;;7.68;5.28;;;;;;;8.63;87.81;98799.38;4174266;28;20659;-82
2022/09/22 00:10:11;;;;;;;7.93;6.70;;;;;;;8.64;88.71;98801.09;4176599;28;20217;-82
2022/09/22 00:12:15;;;;;;;11.65;8.18;;;;;;;8.60;88.53;98800.41;4195548;28;20235;-83
2022/09/22 00:14:21;;;;;;;9.90;8.35;;;;;;;8.60;88.89;98802.13;4175022;28;20233;-82
2022/09/22 00:16:26;;;;;;;10.88;6.60;;;;;;;8.57;88.99;98797.13;4188458;28;20200;-82
2022/09/22 00:18:30;;;;;;;7.45;6.05;;;;;;;8.56;88.46;98798.03;4175081;28;20218;-83
2022/09/22 00:20:32;;;;;;;7.05;5.32;;;;;;;8.55;88.07;98798.94;4176428;28;20300;-82
2022/09/22 00:22:35;;;;;;;8.60;5.88;;;;;;;8.51;88.66;98797.41;4174163;28;20241;-82
2022/09/22 00:24:39;;;;;;;6.43;5.15;;;;;;;8.47;88.42;98790.69;4156751;28;20225;-83
2022/09/22 00:26:42;;;;;;;6.90;5.40;;;;;;;8.44;87.43;98791.66;4180079;28;20312;-82
2022/09/22 00:28:47;;;;;;;7.53;5.70;;;;;;;8.41;89.23;98787.53;4178031;28;20664;-83
2022/09/22 00:30:51;;;;;;;8.23;5.38;;;;;;;8.37;88.80;98789.44;4178304;28;20316;-82
2022/09/22 00:32:55;;;;;;;7.25;5.20;;;;;;;8.34;87.83;98784.38;4180805;28;20241;-82
2022/09/22 00:34:58;;;;;;;6.03;5.10;;;;;;;8.32;89.26;98786.22;4173438;28;20582;-82
2022/09/22 00:37:01;;;;;;;6.60;5.43;;;;;;;8.30;89.13;98790.66;4173461;28;20229;-83
2022/09/22 00:39:04;;;;;;;5.93;4.40;;;;;;;8.31;88.78;98796.69;4173632;28;20838;-82
2022/09/22 00:41:15;;;;;;;5.45;4.57;;;;;;;8.32;88.85;98790.59;4175614;28;20229;-82
2022/09/22 00:43:21;;;;;;;7.68;4.80;;;;;;;8.28;88.80;98789.88;4182360;28;20747;-82
2022/09/22 00:45:24;;;;;;;5.95;4.80;;;;;;;8.26;89.29;98783.91;4188961;28;20687;-82
2022/09/22 00:47:33;;;;;;;5.60;4.93;;;;;;;8.25;88.29;98791.78;4167032;28;20225;-83
2022/09/22 00:49:42;;;;;;;8.43;5.15;;;;;;;8.23;88.40;98797.06;4179836;28;20288;-82
2022/09/22 00:51:45;;;;;;;7.72;4.75;;;;;;;8.21;88.93;98793.69;4175150;28;20258;-82
2022/09/22 00:53:48;;;;;;;7.20;4.78;;;;;;;8.16;88.04;98790.50;4177698;28;20256;-82
2022/09/22 00:55:54;;;;;;;6.00;4.85;;;;;;;8.14;89.41;98787.09;4177292;28;20316;-82
2022/09/22 00:57:57;;;;;;;5.28;4.25;;;;;;;8.12;88.11;98785.50;4175446;28;20229;-83
2022/09/22 01:00:01;;;;;;;5.82;4.78;;;;;;;8.10;87.94;98776.91;4184838;28;20247;-82
2022/09/22 01:02:05;;;;;;;7.30;5.40;;;;;;;8.08;88.47;98781.31;4176407;28;20213;-83
2022/09/22 01:04:09;;;;;;;9.50;5.20;;;;;;;8.11;89.46;98781.19;4177853;28;20221;-82
2022/09/22 01:06:16;;;;;;;5.50;3.90;;;;;;;8.12;89.49;98777.72;4159273;28;20556;-82
2022/09/22 01:08:20;;;;;;;6.78;5.00;;;;;;;8.11;89.27;98782.06;4175920;28;20674;-82
2022/09/22 01:10:25;;;;;;;5.85;4.55;;;;;;;8.08;88.56;98771.78;4174810;28;20712;-82
2022/09/22 01:12:29;;;;;;;5.70;4.40;;;;;;;8.08;89.22;98770.94;4179054;28;20224;-82
2022/09/22 01:14:42;;;;;;;6.07;4.70;;;;;;;8.05;88.29;98777.09;4173843;28;20218;-83
2022/09/22 01:16:52;;;;;;;5.38;4.35;;;;;;;8.02;89.48;98772.06;4171459;28;20264;-82
2022/09/22 01:19:07;;;;;;;5.63;4.88;;;;;;;8.01;89.16;98767.81;4185403;28;20252;-82
2022/09/22 01:21:22;;;;;;;7.70;4.85;;;;;;;8.00;88.65;98776.50;4175121;28;20808;-82
2022/09/22 01:23:52;;;;;;;5.38;4.00;;;;;;;8.03;88.40;98776.34;4176900;28;20260;-82
2022/09/22 01:26:07;;;;;;;5.75;4.38;;;;;;;8.03;90.19;98772.91;4178220;28;20292;-82
2022/09/22 01:28:23;;;;;;;5.20;4.70;;;;;;;7.99;88.86;98780.00;4170473;28;20225;-82
2022/09/22 01:30:31;;;;;;;7.45;4.95;;;;;;;7.97;89.80;98773.22;4172737;28;20743;-82
2022/09/22 01:32:40;;;;;;;6.75;4.72;;;;;;;7.94;89.73;98772.50;4169864;28;20763;-82
2022/09/22 01:34:47;;;;;;;7.65;5.28;;;;;;;7.93;89.73;98774.25;4190571;28;20213;-82
2022/09/22 01:36:57;;;;;;;5.95;4.97;;;;;;;7.93;90.15;98771.66;4178587;28;20232;-82
2022/09/22 01:39:06;;;;;;;5.80;4.65;;;;;;;7.91;89.76;98767.44;4175741;28;20246;-82
2022/09/22 01:41:14;;;;;;;6.17;4.73;;;;;;;7.88;89.28;98765.84;4153068;28;20241;-82
2022/09/22 01:43:26;;;;;;;8.20;4.78;;;;;;;7.87;90.00;98768.53;4174032;28;20667;-82
2022/09/22 01:45:33;;;;;;;5.65;4.30;;;;;;;7.86;89.00;98759.03;4173090;28;20232;-82
2022/09/22 01:47:39;;;;;;;7.32;4.75;;;;;;;7.86;89.39;98764.22;4162722;28;20570;-82
2022/09/22 01:49:45;;;;;;;5.82;4.45;;;;;;;7.87;88.69;98764.16;4172260;28;20636;-82
2022/09/22 01:51:51;;;;;;;9.73;5.07;;;;;;;7.86;89.01;98764.22;4171836;28;20264;-83
2022/09/22 01:53:59;;;;;;;8.10;5.20;;;;;;;7.83;89.89;98760.00;4173194;28;20633;-82
2022/09/22 01:56:05;;;;;;;6.30;5.07;;;;;;;7.82;88.97;98757.47;4157688;28;20254;-82
2022/09/22 01:58:11;;;;;;;5.65;4.55;;;;;;;7.83;90.19;98761.78;4178934;28;20215;-83
2022/09/22 02:00:15;;;;;;;6.20;4.72;;;;;;;7.84;88.76;98755.69;4177428;28;20274;-82
2022/09/22 02:02:24;;;;;;;6.85;5.03;;;;;;;7.82;90.01;98760.94;4175132;28;20762;-82
2022/09/22 02:04:33;;;;;;;5.85;5.10;;;;;;;7.78;90.03;98756.78;4177119;28;20230;-83
2022/09/22 02:06:37;;;;;;;7.10;4.80;;;;;;;7.80;89.23;98761.91;4193230;28;20251;-82
2022/09/22 02:08:44;;;;;;;8.30;5.05;;;;;;;7.80;89.37;98760.16;4191343;28;20771;-83
2022/09/22 02:10:47;;;;;;;4.63;4.20;;;;;;;7.79;89.48;98768.03;4178615;28;20766;-82
2022/09/22 02:12:51;;;;;;;5.60;4.70;;;;;;;7.78;90.38;98762.00;4182285;28;20306;-83
2022/09/22 02:14:54;;;;;;;6.60;5.00;;;;;;;7.78;90.26;98764.59;4180846;28;20720;-82
2022/09/22 02:16:57;;;;;;;5.53;4.75;;;;;;;7.79;89.61;98765.44;4190787;28;20244;-83
2022/09/22 02:19:05;;;;;;;6.03;4.60;;;;;;;7.77;89.19;98756.88;4175240;28;20802;-82
2022/09/22 02:21:16;;;;;;;6.35;4.95;;;;;;;7.73;89.18;98757.94;4181150;28;20218;-82
2022/09/22 02:23:19;;;;;;;5.38;4.53;;;;;;;7.73;89.48;98750.16;4180148;28;20252;-82
2022/09/22 02:25:23;;;;;;;6.15;5.00;;;;;;;7.72;88.51;98748.47;4192628;28;20224;-82
2022/09/22 02:27:35;;;;;;;6.43;4.93;;;;;;;7.68;89.70;98744.31;4192522;28;20217;-82
2022/09/22 02:29:41;;;;;;;6.50;5.13;;;;;;;7.67;89.77;98747.84;4171456;28;20248;-83
2022/09/22 02:31:45;;;;;;;5.70;4.95;;;;;;;7.67;90.55;98748.66;4174107;28;20240;-82
2022/09/22 02:33:48;;;;;;;5.13;4.63;;;;;;;7.70;90.07;98742.50;4184350;28;20213;-82
2022/09/22 02:35:59;;;;;;;5.40;4.45;;;;;;;7.71;89.45;98747.63;4158753;28;20218;-83
2022/09/22 02:38:05;;;;;;;7.55;4.82;;;;;;;7.70;90.13;98738.16;4168483;28;20236;-82
2022/09/22 02:40:13;;;;;;;6.78;5.07;;;;;;;7.70;88.82;98742.50;4192189;28;20287;-82
2022/09/22 02:42:24;;;;;;;6.55;4.60;;;;;;;7.67;90.27;98740.06;4188386;28;20261;-83
2022/09/22 02:44:30;;;;;;;6.10;5.32;;;;;;;7.67;90.92;98737.47;4163621;28;20233;-82
2022/09/22 02:46:38;;;;;;;6.82;5.32;;;;;;;7.67;89.83;98737.47;4177371;28;20253;-82
2022/09/22 02:48:46;;;;;;;6.38;4.75;;;;;;;7.67;89.52;98738.28;4179829;28;20235;-82
2022/09/22 02:50:49;;;;;;;5.85;4.93;;;;;;;7.66;89.35;98740.97;4182423;28;20650;-83
2022/09/22 02:52:58;;;;;;;8.52;5.38;;;;;;;7.68;89.83;98742.59;4152338;28;20773;-82
2022/09/22 02:55:01;;;;;;;9.30;5.60;;;;;;;7.69;91.06;98735.63;4170455;28;20844;-82
2022/09/22 02:57:04;;;;;;;6.47;5.00;;;;;;;7.71;90.51;98741.56;4179650;28;20233;-82
2022/09/22 02:59:08;;;;;;;6.43;5.28;;;;;;;7.69;90.05;98738.22;4180781;28;20241;-82
2022/09/22 03:01:11;;;;;;;7.07;5.20;;;;;;;7.65;89.98;98739.25;4178770;28;20235;-82
2022/09/22 03:03:14;;;;;;;6.65;5.30;;;;;;;7.65;90.06;98734.06;4176034;28;20332;-82
2022/09/22 03:05:17;;;;;;;6.13;5.43;;;;;;;7.68;90.50;98737.38;4182843;28;20229;-82
2022/09/22 03:07:20;;;;;;;5.70;4.70;;;;;;;7.67;91.26;98742.66;4163911;28;20222;-82
2022/09/22 03:09:24;;;;;;;6.53;4.95;;;;;;;7.63;89.58;98736.75;4177626;28;20585;-82
2022/09/22 03:11:27;;;;;;;5.90;5.10;;;;;;;7.61;90.91;98738.56;4160954;28;20214;-82
2022/09/22 03:13:30;;;;;;;5.57;4.97;;;;;;;7.62;89.65;98740.25;4173224;28;22297;-82
2022/09/22 03:15:33;;;;;;;8.38;4.90;;;;;;;7.62;90.38;98734.22;4181456;28;20697;-82
2022/09/22 03:17:36;;;;;;;8.65;4.93;;;;;;;7.58;90.42;98736.13;4180704;28;20229;-82
2022/09/22 03:19:39;;;;;;;6.03;4.70;;;;;;;7.53;90.13;98729.44;4174985;28;20228;-82
2022/09/22 03:21:42;;;;;;;7.10;5.18;;;;;;;7.50;89.53;98734.78;4181503;28;20377;-82
2022/09/22 03:23:45;;;;;;;5.43;4.80;;;;;;;7.48;89.93;98736.59;4159961;28;20283;-82
2022/09/22 03:25:49;;;;;;;5.93;4.72;;;;;;;7.45;90.58;98730.72;4180356;28;20689;-82
2022/09/22 03:27:52;;;;;;;6.15;4.82;;;;;;;7.45;90.97;98731.56;4173808;28;20229;-82
2022/09/22 03:29:55;;;;;;;7.13;5.28;;;;;;;7.45;89.25;98728.97;4174740;28;20226;-82
2022/09/22 03:31:58;;;;;;;6.57;5.10;;;;;;;7.44;90.58;98726.44;4176292;28;20238;-83
2022/09/22 03:34:01;;;;;;;6.30;4.90;;;;;;;7.40;89.59;98727.50;4176297;28;20713;-82
2022/09/22 03:36:05;;;;;;;7.80;5.22;;;;;;;7.39;89.72;98731.00;4175114;28;20225;-82
2022/09/22 03:38:08;;;;;;;6.05;4.95;;;;;;;7.39;89.67;98724.06;4190872;28;20632;-82
2022/09/22 03:40:11;;;;;;;7.65;4.82;;;;;;;7.37;90.22;98733.66;4159276;28;20316;-82
2022/09/22 03:42:15;;;;;;;8.63;5.00;;;;;;;7.35;89.51;98725.13;4176729;28;20212;-82
2022/09/22 03:44:18;;;;;;;6.85;5.18;;;;;;;7.33;89.28;98721.75;4180552;28;20230;-82
2022/09/22 03:46:21;;;;;;;5.65;5.00;;;;;;;7.31;90.18;98723.56;4181378;28;20314;-82
2022/09/22 03:48:25;;;;;;;7.95;5.50;;;;;;;7.29;89.59;98722.81;4177412;28;20217;-82
2022/09/22 03:50:28;;;;;;;7.40;5.40;;;;;;;7.28;90.46;98718.53;4159781;28;20749;-82
2022/09/22 03:52:32;;;;;;;6.00;5.40;;;;;;;7.26;89.43;98722.94;4162469;28;20225;-82
2022/09/22 03:54:35;;;;;;;7.30;5.68;;;;;;;7.25;89.99;98723.84;4176510;28;20264;-82
2022/09/22 03:56:39;;;;;;;8.05;5.60;;;;;;;7.23;89.66;98723.09;4173254;28;20748;-83
2022/09/22 03:58:43;;;;;;;6.70;5.57;;;;;;;7.22;89.77;98723.97;4179107;28;20221;-82
2022/09/22 04:00:48;;;;;;;6.88;4.97;;;;;;;7.18;90.23;98717.25;4174894;28;20680;-82
2022/09/22 04:02:51;;;;;;;6.22;4.95;;;;;;;7.15;89.53;98719.13;4163677;28;20222;-82
2022/09/22 04:04:55;;;;;;;7.57;6.07;;;;;;;7.12;89.33;98720.09;4191915;28;20237;-82
2022/09/22 04:06:58;;;;;;;7.65;5.13;;;;;;;7.11;89.13;98709.81;4176678;28;20245;-83
2022/09/22 04:09:09;;;;;;;9.68;5.95;;;;;;;7.08;89.07;98710.81;4176261;28;20221;-82
2022/09/22 04:11:11;;;;;;;7.70;5.38;;;;;;;7.05;89.25;98716.13;4189547;28;20229;-82
2022/09/22 04:13:15;;;;;;;7.68;5.80;;;;;;;7.06;89.25;98716.97;4158064;28;20283;-82
2022/09/22 04:15:20;;;;;;;6.97;5.28;;;;;;;7.05;90.22;98703.16;4191334;28;20225;-82
2022/09/22 04:17:23;;;;;;;8.80;6.38;;;;;;;7.04;89.16;98714.44;4153676;28;20281;-82
2022/09/22 04:19:26;;;;;;;6.72;5.18;;;;;;;7.03;90.04;98705.88;4176974;28;20301;-82
2022/09/22 04:21:29;;;;;;;7.20;5.22;;;;;;;7.00;89.58;98706.03;4181380;28;20229;-82
2022/09/22 04:23:32;;;;;;;7.72;5.80;;;;;;;6.98;89.62;98710.44;4175989;28;20302;-83
2022/09/22 04:25:35;;;;;;;7.40;5.20;;;;;;;6.97;89.43;98708.75;4174997;28;20225;-82
2022/09/22 04:27:38;;;;;;;6.05;5.45;;;;;;;6.98;89.69;98713.03;4172263;28;20218;-83
2022/09/22 04:29:41;;;;;;;9.18;6.45;;;;;;;7.00;89.49;98711.22;4186778;28;20224;-83
2022/09/22 04:31:45;;;;;;;10.30;5.80;;;;;;;6.98;89.63;98705.25;4177966;28;20661;-82
2022/09/22 04:33:48;;;;;;;7.78;5.88;;;;;;;6.97;89.77;98711.34;4180230;28;20249;-82
2022/09/22 04:35:52;;;;;;;8.05;5.90;;;;;;;6.95;90.29;98708.00;4175859;28;20229;-82
2022/09/22 04:37:55;;;;;;;7.63;5.90;;;;;;;6.95;89.64;98714.00;4174261;28;20248;-82
2022/09/22 04:39:58;;;;;;;6.70;5.03;;;;;;;6.95;89.58;98715.75;4176429;28;20230;-82
2022/09/22 04:42:02;;;;;;;8.15;6.25;;;;;;;6.94;90.03;98717.50;4175564;28;20222;-83
2022/09/22 04:44:06;;;;;;;6.78;5.70;;;;;;;6.95;89.94;98718.34;4174859;28;20256;-82
2022/09/22 04:46:10;;;;;;;7.15;5.22;;;;;;;6.96;89.59;98713.09;4159459;28;20288;-82
2022/09/22 04:48:16;;;;;;;8.00;6.57;;;;;;;6.95;90.42;98708.81;4157913;28;20304;-82
2022/09/22 04:50:21;;;;;;;7.88;5.32;;;;;;;6.95;90.18;98708.00;4163203;28;20222;-82
2022/09/22 04:52:25;;;;;;;6.57;5.63;;;;;;;6.92;90.03;98708.94;4159283;28;20285;-82
2022/09/22 04:54:29;;;;;;;8.60;5.63;;;;;;;6.93;90.30;98709.78;4156434;28;20253;-82
2022/09/22 04:56:33;;;;;;;6.80;5.28;;;;;;;6.96;90.48;98710.50;4164102;28;20245;-81
2022/09/22 04:58:37;;;;;;;7.43;4.95;;;;;;;6.92;90.32;98716.72;4175302;28;20221;-83
2022/09/22 05:00:41;;;;;;;6.45;5.60;;;;;;;6.91;90.68;98709.03;4176118;28;20847;-82
2022/09/22 05:02:46;;;;;;;7.32;5.15;;;;;;;6.87;90.70;98712.63;4174618;28;20227;-82
2022/09/22 05:04:52;;;;;;;9.55;5.35;;;;;;;6.92;91.00;98713.31;4167949;28;20808;-82
2022/09/22 05:06:55;;;;;;;5.97;5.20;;;;;;;6.93;91.37;98721.00;4179552;28;20288;-82
2022/09/22 05:08:58;;;;;;;6.50;5.80;;;;;;;6.96;91.61;98717.44;4153369;28;20313;-82
2022/09/22 05:11:05;;;;;;;10.07;5.57;;;;;;;6.96;91.16;98712.25;4162205;28;20310;-83
2022/09/22 05:13:08;;;;;;;6.60;5.38;;;;;;;6.96;90.21;98726.06;4174869;28;21070;-82
2022/09/22 05:15:13;;;;;;;7.15;5.40;;;;;;;6.94;91.49;98720.09;4191019;28;20244;-82
2022/09/22 05:17:16;;;;;;;9.25;5.10;;;;;;;6.95;90.03;98728.72;4177045;28;20224;-82
2022/09/22 05:19:19;;;;;;;6.55;5.80;;;;;;;6.96;90.08;98728.66;4155089;28;20593;-82
2022/09/22 05:21:24;;;;;;;7.10;6.00;;;;;;;6.98;90.51;98729.44;4175414;28;20278;-82
2022/09/22 05:23:27;;;;;;;7.80;5.43;;;;;;;6.96;89.94;98733.84;4186803;28;20235;-84
2022/09/22 05:25:30;;;;;;;12.52;6.10;;;;;;;6.98;89.92;98732.00;4170357;28;20235;-82
2022/09/22 05:27:33;;;;;;;8.00;5.30;;;;;;;6.99;90.84;98730.25;4185952;28;20711;-83
2022/09/22 05:29:36;;;;;;;6.93;5.80;;;;;;;7.07;90.28;98731.63;4171980;28;20255;-84
2022/09/22 05:31:39;;;;;;;8.52;5.65;;;;;;;7.23;89.73;98736.06;4153989;28;20278;-84
2022/09/22 05:33:42;;;;;;;7.25;5.55;;;;;;;7.39;90.31;98736.19;4175808;28;20229;-85
2022/09/22 05:35:45;;;;;;;6.63;5.30;;;;;;;7.51;90.22;98739.91;4193706;28;20229;-84
2022/09/22 05:37:51;;;;;;;6.88;5.82;;;;;;;7.66;89.04;98738.38;4173937;28;20279;-84
2022/09/22 05:39:54;;;;;;;6.75;5.65;;;;;;;7.79;90.06;98744.69;4157151;28;20230;-88
2022/09/22 05:41:57;;;;;;;8.20;5.63;;;;;;;7.94;88.59;98743.94;4173872;28;20218;-86
2022/09/22 05:44:00;;;;;;;8.90;6.10;;;;;;;8.09;89.70;98747.50;4173491;28;20762;-86
2022/09/22 05:46:03;;;;;;;10.63;6.40;;;;;;;8.23;88.93;98744.25;4174246;28;20217;-87
2022/09/22 05:48:06;;;;;;;8.60;6.57;;;;;;;8.39;87.46;98752.97;4175971;28;20720;-86
2022/09/22 05:50:11;;;;;;;7.22;6.03;;;;;;;8.52;88.53;98758.34;4172455;28;20539;-86
2022/09/22 05:52:14;;;;;;;9.85;6.40;;;;;;;8.66;88.17;98755.91;4155574;28;20227;-86
2022/09/22 05:54:18;;;;;;;10.23;5.55;;;;;;;8.77;86.74;98758.78;4175311;28;20229;-88
2022/09/22 05:56:25;;;;;;;8.52;6.60;;;;;;;8.89;86.43;98772.94;4174522;28;20229;-87
2022/09/22 05:58:28;;;;;;;8.07;6.20;;;;;;;9.00;85.26;98768.88;4173893;28;20316;-88
2022/09/22 06:00:32;;;;;;;8.30;6.30;;;;;;;9.11;84.89;98758.75;4189202;28;20222;-87
2022/09/22 06:02:35;;;;;;;7.68;6.47;;;;;;;9.26;85.63;98761.41;4153279;28;20309;-83
2022/09/22 06:04:38;;;;;;;8.85;6.35;;;;;;;9.39;85.44;98759.81;4176527;28;20230;-83
2022/09/22 06:06:42;;;;;;;7.40;6.60;;;;;;;9.55;85.25;98763.31;4177452;28;20328;-83
2022/09/22 06:08:45;;;;;;;7.82;6.20;;;;;;;9.71;84.53;98766.75;4179196;28;20222;-83
2022/09/22 06:10:52;;;;;;;11.45;6.05;;;;;;;9.82;84.23;98764.41;4185903;28;20229;-84
2022/09/22 06:12:58;;;;;;;6.95;6.25;;;;;;;9.91;83.73;98767.38;4174855;28;20230;-83
2022/09/22 06:15:01;;;;;;;8.25;6.65;;;;;;;10.03;83.57;98772.75;4171494;28;20230;-84
2022/09/22 06:17:09;;;;;;;8.32;6.25;;;;;;;10.18;82.84;98766.72;4173740;28;20658;-84
2022/09/22 06:19:13;;;;;;;9.07;6.28;;;;;;;10.30;82.73;98773.84;4173550;28;21487;-83
2022/09/22 06:21:16;;;;;;;8.55;6.25;;;;;;;10.42;81.76;98778.38;4173589;28;20584;-84
2022/09/22 06:23:19;;;;;;;6.50;5.43;;;;;;;10.48;81.04;98778.03;4194097;28;20594;-83
2022/09/22 06:25:22;;;;;;;7.03;6.32;;;;;;;10.58;81.66;98777.38;4174686;28;20229;-84
2022/09/22 06:27:26;;;;;;;8.87;6.13;;;;;;;10.71;80.59;98774.94;4176802;28;20226;-84
2022/09/22 06:29:29;;;;;;;7.45;6.20;;;;;;;10.91;82.02;98780.66;4176141;28;21262;-84
2022/09/22 06:31:32;;;;;;;7.83;5.90;;;;;;;11.00;80.85;98785.31;4163888;28;20639;-84
2022/09/22 06:33:35;;;;;;;7.37;6.43;;;;;;;11.08;80.32;98780.47;4178199;28;20647;-83
2022/09/22 06:35:41;;;;;;;8.70;5.83;;;;;;;11.25;80.10;98782.97;4177218;28;21025;-84
2022/09/22 06:37:46;;;;;;;7.03;6.00;;;;;;;11.34;78.64;98778.84;4192856;28;20750;-83
2022/09/22 06:39:49;;;;;;;7.80;6.00;;;;;;;11.46;79.71;98775.50;4187656;28;20648;-83
2022/09/22 06:41:55;;;;;;;7.03;6.13;;;;;;;11.62;80.37;98772.81;4178227;28;20649;-84
2022/09/22 06:43:59;;;;;;;9.30;6.43;;;;;;;11.72;80.08;98769.53;4182108;28;20643;-84
2022/09/22 06:46:02;;;;;;;9.20;6.60;;;;;;;11.87;80.10;98776.41;4177741;28;20741;-83
2022/09/22 06:48:06;;;;;;;9.60;7.03;;;;;;;12.03;80.90;98772.75;4178624;28;20662;-83
2022/09/22 06:50:12;;;;;;;7.10;6.40;;;;;;;12.15;80.04;98768.50;4176646;28;21444;-83
2022/09/22 06:52:15;;;;;;;13.90;7.43;;;;;;;12.30;78.73;98776.22;4191239;28;21025;-83
2022/09/22 06:54:18;;;;;;;11.37;7.17;;;;;;;12.42;78.98;98780.69;4176731;28;20643;-83
2022/09/22 06:56:28;;;;;;;9.67;6.90;;;;;;;12.60;80.77;98780.31;4160780;28;20692;-83
2022/09/22 06:58:31;;;;;;;9.77;6.90;;;;;;;12.76;80.64;98784.44;4178556;28;20750;-83
2022/09/22 07:01:04;;;;;;;6.63;6.03;;;;;;;12.96;77.79;98786.59;4174404;28;21138;-83
2022/09/22 07:03:16;;;;;;;7.30;6.23;;;;;;;13.08;79.04;98777.94;4176573;28;20668;-83
2022/09/22 07:05:19;;;;;;;6.90;6.30;;;;;;;13.22;78.49;98783.06;4192141;28;20716;-83
2022/09/22 07:07:26;;;;;;;8.23;6.00;;;;;;;13.34;77.56;98790.09;4191946;28;21100;-83
2022/09/22 07:09:29;;;;;;;7.67;6.13;;;;;;;13.39;75.97;98772.28;4162288;28;20633;-83
2022/09/22 07:11:33;;;;;;;9.43;7.40;;;;;;;13.52;77.49;98786.22;4172126;28;20975;-84
2022/09/22 07:13:43;;;;;;;8.27;7.43;;;;;;;13.61;77.65;98785.59;4153429;28;21302;-84
2022/09/22 07:15:46;;;;;;;7.30;6.33;;;;;;;13.68;77.53;98780.66;4172952;28;20714;-84
2022/09/22 07:17:52;;;;;;;7.00;6.27;;;;;;;13.79;75.26;98783.34;4175313;28;20725;-83
2022/09/22 07:19:57;;;;;;;7.93;7.10;;;;;;;13.84;76.13;98789.09;4185827;28;21244;-83
2022/09/22 07:22:02;;;;;;;7.27;6.37;;;;;;;13.92;73.83;98778.06;4178103;28;20644;-83
2022/09/22 07:24:07;;;;;;;7.60;6.43;;;;;;;14.06;77.72;98778.81;4173861;28;20640;-84
2022/09/22 07:26:11;;;;;;;7.37;6.27;;;;;;;14.20;74.66;98778.66;4174496;28;20645;-84
2022/09/22 07:28:14;;;;;;;7.00;5.77;;;;;;;14.32;73.64;98780.41;4171777;28;20700;-83
2022/09/22 07:30:19;;;;;;;10.17;6.20;;;;;;;14.40;73.60;98784.16;4172455;28;20743;-83
2022/09/22 07:32:22;;;;;;;6.07;5.30;;;;;;;14.51;74.47;98781.59;4179334;28;20708;-83
2022/09/22 07:34:26;;;;;;;7.53;6.03;;;;;;;14.64;74.44;98783.22;4176069;28;21100;-83
2022/09/22 07:36:31;;;;;;;6.50;5.40;;;;;;;14.78;73.47;98790.06;4162222;28;20649;-83
2022/09/22 07:38:35;;;;;;;6.97;5.70;;;;;;;14.81;72.28;98788.06;4171558;28;20638;-84
2022/09/22 07:40:38;;;;;;;7.10;6.40;;;;;;;14.92;73.84;98780.19;4178763;28;20645;-83
2022/09/22 07:42:41;;;;;;;6.73;6.03;;;;;;;15.09;73.88;98788.50;4177036;28;21087;-83
2022/09/22 07:47:04;;;;;;;7.57;5.57;;;;;;;15.34;73.27;98782.25;4172653;28;20664;-84
2022/09/22 07:49:07;;;;;;;7.80;6.07;;;;;;;15.44;72.99;98783.22;4179408;28;20635;-83
2022/09/22 07:51:12;;;;;;;6.40;5.40;;;;;;;15.49;73.36;98781.91;4183762;28;20643;-83
2022/09/22 07:53:18;;;;;;;7.17;5.53;;;;;;;15.61;70.15;98783.59;4178897;28;20784;-83
2022/09/22 07:55:23;;;;;;;7.00;6.00;;;;;;;15.71;71.78;98777.53;4161119;28;20679;-84
2022/09/22 07:57:29;;;;;;;7.37;5.33;;;;;;;15.83;71.15;98783.59;4176915;28;20658;-84
2022/09/22 07:59:32;;;;;;;7.80;5.73;;;;;;;16.01;72.32;98782.16;4177798;28;20683;-83
2022/09/22 08:01:36;;;;;;;7.67;5.30;;;;;;;16.15;72.94;98788.84;4180938;28;20676;-84
2022/09/22 08:03:39;;;;;;;6.30;4.90;;;;;;;16.32;74.01;98788.34;4154743;28;20726;-83
2022/09/22 08:05:42;;;;;;;5.43;4.90;;;;;;;16.41;71.45;98784.16;4174481;28;20670;-84
2022/09/22 08:07:46;;;;;;;6.60;5.30;;;;;;;16.48;72.22;98785.31;4174847;28;20770;-83
2022/09/22 08:09:50;;;;;;;6.27;5.27;;;;;;;16.52;71.12;98785.81;4194169;28;20650;-84
2022/09/22 08:11:53;;;;;;;5.13;4.63;;;;;;;16.55;70.19;98785.56;4177367;28;21245;-84
2022/09/22 08:13:58;;;;;;;5.60;4.80;;;;;;;16.58;70.12;98782.69;4179051;28;20667;-84
2022/09/22 08:16:03;;;;;;;5.67;4.87;;;;;;;16.67;69.43;98783.72;4176547;28;20694;-84
2022/09/22 08:18:07;;;;;;;5.30;4.80;;;;;;;16.74;70.49;98788.34;4178294;28;20643;-83
2022/09/22 08:20:11;;;;;;;5.53;4.97;;;;;;;16.86;70.54;98779.44;4176046;28;21029;-84
2022/09/22 08:22:14;;;;;;;5.23;4.53;;;;;;;16.99;71.36;98770.41;4165093;28;20651;-84
2022/09/22 08:24:20;;;;;;;5.40;4.90;;;;;;;17.01;70.03;98765.00;4177928;28;20795;-84
2022/09/22 08:26:24;;;;;;;5.43;4.83;;;;;;;17.06;70.67;98765.44;4175664;28;20706;-84
2022/09/22 08:28:27;;;;;;;5.70;5.10;;;;;;;17.20;72.33;98770.38;4174206;28;20667;-84
2022/09/22 08:30:30;;;;;;;5.13;4.63;;;;;;;17.25;71.61;98763.00;4190932;28;20794;-84
2022/09/22 08:32:34;;;;;;;11.33;10.17;;;;;;;17.46;71.72;98763.81;4173579;28;20760;-83
2022/09/22 08:34:37;;;;;;;4.67;4.10;;;;;;;17.69;69.14;98772.25;4176584;28;20652;-84
2022/09/22 08:36:47;;;;;;;8.13;4.30;;;;;;;17.87;69.61;98775.13;4154805;28;20657;-84
2022/09/22 08:38:50;;;;;;;5.30;3.50;;;;;;;17.99;67.58;98769.59;4176031;28;21048;-84
2022/09/22 08:41:06;;;;;;;4.23;3.70;;;;;;;18.11;70.61;98773.81;4176570;28;20711;-84
2022/09/22 08:43:11;;;;;;;4.27;3.73;;;;;;;18.27;67.93;98774.19;4173997;28;20672;-84
2022/09/22 08:45:24;;;;;;;4.20;3.30;;;;;;;18.36;67.97;98768.91;4174734;28;21166;-85
2022/09/22 08:52:38;;;;;;;6.23;3.80;;;;;;;18.75;68.78;98767.97;4119945;28;20741;-84
2022/09/22 08:54:42;;;;;;;4.83;3.40;;;;;;;18.75;67.97;98774.09;4154959;28;20676;-84
2022/09/22 08:56:56;;;;;;;4.67;3.33;;;;;;;18.85;68.97;98769.63;4192202;28;21250;-84
2022/09/22 08:59:04;;;;;;;4.13;3.30;;;;;;;18.96;67.81;98761.59;4159501;28;20651;-84
2022/09/22 09:01:17;;;;;;;3.80;3.33;;;;;;;19.09;65.41;98764.78;4171920;28;20679;-85
2022/09/22 09:03:26;;;;;;;4.37;3.20;;;;;;;19.25;67.31;98765.91;4183041;28;21358;-84
2022/09/22 09:05:49;;;;;;;5.87;4.90;;;;;;;19.32;66.30;98755.56;4175282;28;20660;-84
2022/09/22 09:07:58;;;;;;;4.60;2.97;;;;;;;19.29;62.07;98756.72;4176996;28;20759;-84
2022/09/22 09:10:07;;;;;;;3.50;2.97;;;;;;;19.26;63.52;98754.34;4178040;28;20958;-84
2022/09/22 09:12:26;;;;;;;3.43;2.80;;;;;;;19.34;62.71;98751.00;4189154;28;20702;-84
2022/09/22 09:14:49;;;;;;;4.60;2.50;;;;;;;19.37;63.61;98756.81;4175708;28;20741;-85
2022/09/22 09:16:55;;;;;;;5.33;2.57;;;;;;;19.38;65.59;98755.84;4188476;28;21064;-84
2022/09/22 09:19:05;;;;;;;4.33;2.37;;;;;;;19.43;65.71;98757.06;4185069;28;20697;-82
2022/09/22 09:21:13;;;;;;;3.07;2.67;;;;;;;19.48;65.04;98752.22;4191339;28;21266;-83
2022/09/22 09:23:17;;;;;;;7.37;6.10;;;;;;;19.55;65.31;98763.06;4158763;28;20646;-82
2022/09/22 09:25:26;;;;;;;3.17;2.77;;;;;;;19.62;65.56;98759.69;4179246;28;21068;-82
2022/09/22 09:27:35;;;;;;;3.10;2.77;;;;;;;19.65;63.12;98748.81;4191383;28;20706;-82
2022/09/22 09:29:43;;;;;;;2.27;1.67;;;;;;;19.71;61.84;98758.81;4176611;28;21026;-82
2022/09/22 09:31:48;;;;;;;3.50;1.70;;;;;;;19.71;61.11;98755.31;4178006;28;20641;-82
2022/09/22 09:33:55;;;;;;;2.60;1.90;;;;;;;19.78;61.87;98759.91;4157461;28;20647;-82
2022/09/22 09:35:58;;;;;;;2.60;2.10;;;;;;;19.54;56.99;98754.25;4180917;28;20662;-82
2022/09/22 09:38:02;;;;;;;3.00;2.40;;;;;;;19.44;59.06;98745.53;4192624;28;20665;-82
2022/09/22 09:40:14;;;;;;;2.63;1.63;;;;;;;19.48;59.12;98746.91;4190343;28;20703;-82
2022/09/22 09:42:21;;;;;;;2.30;1.60;;;;;;;19.54;57.56;98743.66;4161202;28;20666;-82
2022/09/22 09:44:29;;;;;;;2.20;1.57;;;;;;;19.56;57.12;98744.38;4176305;28;20648;-82
2022/09/22 09:46:41;;;;;;;1.90;1.30;;;;;;;19.48;56.39;98746.06;4188482;28;20686;-82
2022/09/22 09:49:01;;;;;;;1.83;1.30;;;;;;;19.37;58.80;98737.47;4193345;28;20658;-82
2022/09/22 09:51:05;;;;;;;2.20;1.53;;;;;;;19.50;58.43;98738.81;4185729;28;21576;-82
2022/09/22 09:53:29;;;;;;;2.30;1.17;;;;;;;19.56;57.55;98731.16;4165875;28;20666;-83
2022/09/22 09:55:34;;;;;;;2.53;1.50;;;;;;;19.56;57.81;98739.09;4189377;28;21074;-82
2022/09/22 09:58:05;;;;;;;2.57;1.20;;;;;;;19.71;59.91;98739.44;4175762;28;20662;-82
2022/09/22 10:00:30;;;;;;;2.73;1.63;;;;;;;19.68;57.27;98737.06;4186855;28;21327;-82
2022/09/22 10:02:36;;;;;;;1.90;1.40;;;;;;;19.49;56.62;98732.69;4187477;28;20644;-82
2022/09/22 10:04:39;;;;;;;2.10;1.40;;;;;;;19.41;56.97;98729.94;4160900;28;21267;-82